OMAL/AAN METAR and TAF weather

Enter ICAO airport designator
Station Type Date Time Source
OMAL METAR 2020/02/19 14:00 UTC NOAA

OMAL 191400Z 31005KT CAVOK 30/03 Q1013 NOSIG


Station Type Date Time Source
OMAL Decoded METAR 2020/02/19 14:00 UTC NOAA

Al Ain International Airport, United Arab Emirates (OMAL) 24-16N 055-36E 262M
Feb 19, 2020 - 09:00 AM EST / 2020.02.19 1400 UTC
Wind: from the NW (310 degrees) at 6 MPH (5 KT):0
Visibility: greater than 7 mile(s):0
Temperature: 86 F (30 C)
Dew Point: 37 F (3 C)
Relative Humidity: 17%
Pressure (altimeter): 29.91 in. Hg (1013 hPa)
ob: OMAL 191400Z 31005KT CAVOK 30/03 Q1013 NOSIG
cycle: 14

Station Type Date Time Source
OMAL TAF 2020/02/19 12:03 UTC NOAA

TAF OMAL 191100Z 1912/2018 32006KT 8000 NSC
BECMG 1918/1920 14011KT
BECMG 2014/2016 33006KT

Example: see airport list